Connexion S'enregistrer

Connexion à votre compte

Identifiant
Mot de passe
Maintenir la connexion active sur ce site

Créer un compte

Pour valider ce formulaire, vous devez remplir tous les champs.
Nom
Identifiant
Mot de passe
Répétez le mot de passe
Adresse e-mail
Répétez l'adresse e-mail

METAR/TAF de Chambéry

[source: ADDS]
METAR
LFLB 160900Z AUTO 02009KT CAVOK 01/M03 Q1027 NOSIG =
TAF LFLB 160800Z 1609/1709 01007KT CAVOK BECMG 1612/1614 18005KT BECMG 1619/1621 BKN030 TEMPO 1621/1701 1500 SN OVC002 PROB30 TEMPO 1701/1706 0800 FZFG VV///
TAF
TAF LFLB 160800Z 1609/1709 01007KT CAVOK BECMG 1612/1614 18005KT BECMG 1619/1621 BKN030 TEMPO 1621/1701 1500 SN OVC002 PROB30 TEMPO 1701/1706 0800 FZFG VV/// =
SR / SS: 07:12 / 16:20 UTC (Lever/Coucher du soleil le 2021-01-16)

 

Webcam de l'Aéroclub - Parking Lima et SW (réactualisation : 5min)

Cliquer ici pour une animation sur les 3 dernières heures / Cliquer sur l'image pour l'agrandir dans une nouvelle fenêtre

 

Webcam de l'Aéroclub - Manche à air et WA (réactualisation : 5min)

Cliquer ici pour une animation sur les 3 dernières heures / Cliquer sur l'image pour l'agrandir dans une nouvelle fenêtre

 

JSN Boot template designed by JoomlaShine.com